Time;durP1;ratioP1;P1;durP2;ratioP2;P2;SDS_P1;SDS_P2;PMS_P1;PMS_P2;Temp;Humidity;BMP_temperature;BMP_pressure;BME280_temperature;BME280_humidity;BME280_pressure;Samples;Min_cycle;Max_cycle;Signal;HPM_P1;HPM_P2
2021/12/24 00:00:42;;;;;;;25.73;9.90;;;5.00;58.30;;;;;;4878332;29;20021;-78
2021/12/24 00:03:08;;;;;;;31.25;10.18;;;5.00;58.50;;;;;;4896314;29;20035;-78
2021/12/24 00:05:34;;;;;;;25.67;10.50;;;5.00;58.50;;;;;;4892263;29;20033;-78
2021/12/24 00:08:01;;;;;;;29.03;9.63;;;5.00;58.40;;;;;;4895788;29;20310;-78
2021/12/24 00:10:30;;;;;;;23.27;9.70;;;5.00;58.30;;;;;;4891428;29;20116;-78
2021/12/24 00:13:02;;;;;;;33.87;10.93;;;5.00;58.30;;;;;;4877385;29;20127;-78
2021/12/24 00:37:09;;;;;;;24.30;8.47;;;5.00;58.40;;;;;;4904924;29;20053;-78
2021/12/24 00:39:41;;;;;;;28.20;9.03;;;4.90;58.20;;;;;;4899221;29;20028;-78
2021/12/24 00:42:07;;;;;;;25.60;10.18;;;5.00;58.30;;;;;;4898611;29;20565;-78
2021/12/24 00:44:33;;;;;;;28.57;10.10;;;5.00;58.40;;;;;;4904435;29;20071;-78
2021/12/24 00:46:59;;;;;;;41.43;12.37;;;5.00;58.30;;;;;;4891310;29;20056;-78
2021/12/24 00:49:25;;;;;;;20.47;10.30;;;5.00;58.30;;;;;;4880601;29;20384;-78
2021/12/24 00:52:17;;;;;;;23.93;9.37;;;4.90;58.30;;;;;;4875105;29;20044;-78
2021/12/24 00:57:26;;;;;;;20.97;8.27;;;5.00;58.30;;;;;;4886587;29;20381;-78
2021/12/24 00:59:52;;;;;;;19.07;7.63;;;5.00;59.00;;;;;;4888622;29;20028;-78
2021/12/24 01:02:17;;;;;;;22.17;9.77;;;5.10;58.30;;;;;;4878850;29;20029;-78
2021/12/24 01:04:43;;;;;;;36.80;16.77;;;5.20;58.20;;;;;;4895369;29;20032;-78
2021/12/24 01:07:09;;;;;;;18.00;8.43;;;5.20;58.30;;;;;;4899675;29;20093;-78
2021/12/24 01:09:35;;;;;;;19.83;8.23;;;5.20;58.40;;;;;;4896567;29;20052;-78
2021/12/24 01:12:01;;;;;;;15.60;7.90;;;5.40;58.50;;;;;;4895672;29;20021;-77
2021/12/24 01:14:29;;;;;;;19.23;8.07;;;5.30;58.00;;;;;;4876174;29;20507;-78
2021/12/24 01:19:38;;;;;;;18.13;7.10;;;5.20;57.70;;;;;;4891946;29;20118;-78
2021/12/24 01:24:49;;;;;;;14.57;7.17;;;5.20;57.20;;;;;;4911601;29;20052;-78
2021/12/24 01:27:33;;;;;;;23.37;7.87;;;5.10;57.20;;;;;;4881973;29;20094;-78
2021/12/24 01:38:19;;;;;;;13.60;6.40;;;5.20;56.90;;;;;;4889714;29;20112;-78
2021/12/24 01:43:24;;;;;;;18.70;7.97;;;5.20;56.80;;;;;;4910774;29;20028;-78
2021/12/24 01:45:53;;;;;;;15.90;8.40;;;5.20;57.30;;;;;;4899876;29;20515;-78
2021/12/24 01:48:20;;;;;;;16.90;9.07;;;5.10;56.80;;;;;;4891439;29;20028;-78
2021/12/24 01:50:47;;;;;;;20.87;9.47;;;5.10;56.90;;;;;;4897581;29;20535;-78
2021/12/24 01:53:19;;;;;;;21.53;9.37;;;5.10;57.00;;;;;;4894222;29;20025;-78
2021/12/24 01:55:48;;;;;;;16.98;7.95;;;5.00;57.00;;;;;;4898922;29;20025;-78
2021/12/24 01:58:18;;;;;;;17.80;8.53;;;5.00;57.20;;;;;;4889573;29;20056;-78
2021/12/24 02:00:46;;;;;;;16.87;8.07;;;5.00;57.40;;;;;;4900789;29;20031;-78
2021/12/24 02:03:13;;;;;;;16.40;7.60;;;5.10;57.20;;;;;;4880521;29;20088;-77
2021/12/24 02:05:40;;;;;;;19.67;7.47;;;5.10;56.90;;;;;;4897571;29;20116;-78
2021/12/24 02:08:07;;;;;;;17.23;7.80;;;5.10;56.80;;;;;;4890005;29;20527;-78
2021/12/24 02:10:33;;;;;;;21.33;8.20;;;5.10;56.90;;;;;;4895297;29;20028;-78
2021/12/24 02:12:59;;;;;;;19.67;8.37;;;5.00;56.90;;;;;;4889791;29;20031;-78
2021/12/24 02:18:18;;;;;;;23.90;8.25;;;5.00;57.00;;;;;;4911861;29;20040;-78
2021/12/24 02:28:20;;;;;;;16.97;8.17;;;4.90;57.10;;;;;;4896864;29;20031;-78
2021/12/24 02:29:16;;;;;;;21.13;7.97;;;4.80;57.20;;;;;;4902940;29;20420;-78
2021/12/24 02:31:43;;;;;;;17.70;8.27;;;4.80;57.30;;;;;;4905829;29;20033;-78
2021/12/24 02:34:09;;;;;;;22.20;7.13;;;4.70;57.30;;;;;;4894301;29;20407;-79
2021/12/24 02:36:35;;;;;;;15.87;7.17;;;4.70;57.50;;;;;;4898964;29;20488;-78
2021/12/24 02:39:02;;;;;;;14.03;9.03;;;4.70;57.60;;;;;;4886419;29;20457;-78
2021/12/24 02:41:28;;;;;;;15.13;6.77;;;4.60;57.50;;;;;;4894833;29;20035;-78
2021/12/24 02:43:54;;;;;;;13.17;6.63;;;4.60;57.90;;;;;;4894684;29;20536;-78
2021/12/24 02:53:56;;;;;;;11.47;5.77;;;4.60;57.90;;;;;;4857563;29;20129;-78
2021/12/24 02:54:51;;;;;;;13.97;6.40;;;4.50;58.40;;;;;;4893670;29;20043;-78
2021/12/24 02:57:20;;;;;;;12.20;5.77;;;4.40;58.50;;;;;;4888605;29;20032;-78
2021/12/24 02:59:59;;;;;;;12.80;6.23;;;4.40;58.70;;;;;;4885414;29;20032;-78
2021/12/24 03:02:26;;;;;;;9.83;4.70;;;4.40;58.80;;;;;;4899320;29;20040;-78
2021/12/24 03:04:52;;;;;;;7.93;4.10;;;4.40;58.80;;;;;;4898592;29;20039;-78
2021/12/24 03:07:18;;;;;;;9.73;4.47;;;4.40;58.90;;;;;;4884167;29;20036;-78
2021/12/24 03:09:44;;;;;;;8.00;4.57;;;4.40;59.10;;;;;;4898298;29;20137;-78
2021/12/24 03:12:10;;;;;;;8.37;4.33;;;4.40;59.10;;;;;;4872981;29;20057;-78
2021/12/24 03:14:36;;;;;;;7.83;5.10;;;4.30;59.20;;;;;;4903134;29;20029;-78
2021/12/24 03:17:07;;;;;;;9.57;4.90;;;4.30;59.20;;;;;;4903947;29;20028;-78
2021/12/24 03:19:33;;;;;;;10.10;5.20;;;4.30;59.20;;;;;;4870299;29;20095;-78
2021/12/24 03:24:35;;;;;;;11.67;4.83;;;4.20;59.30;;;;;;4906478;29;20112;-78
2021/12/24 03:27:02;;;;;;;11.97;5.03;;;4.20;59.40;;;;;;4897806;29;20505;-78
2021/12/24 03:29:28;;;;;;;14.20;6.43;;;4.20;59.30;;;;;;4898622;29;20060;-78
2021/12/24 03:31:53;;;;;;;10.30;4.80;;;4.20;59.30;;;;;;4904389;29;20053;-78
2021/12/24 03:34:21;;;;;;;8.63;4.50;;;4.20;59.30;;;;;;4895777;29;20027;-78
2021/12/24 03:36:47;;;;;;;12.73;4.87;;;4.20;59.30;;;;;;4883841;29;20040;-78
2021/12/24 03:39:14;;;;;;;7.23;3.77;;;4.20;59.30;;;;;;4892847;29;20033;-78
2021/12/24 03:41:40;;;;;;;10.43;5.13;;;4.20;59.50;;;;;;4879111;29;20029;-78
2021/12/24 03:44:09;;;;;;;9.63;4.73;;;4.20;59.60;;;;;;4883892;29;20028;-78
2021/12/24 03:46:46;;;;;;;15.03;5.30;;;4.20;59.50;;;;;;4880533;29;20029;-78
2021/12/24 03:49:54;;;;;;;7.07;3.87;;;4.10;59.50;;;;;;4900330;29;20088;-77
2021/12/24 03:55:01;;;;;;;8.27;4.13;;;4.10;60.00;;;;;;4908260;29;20107;-78
2021/12/24 03:57:38;;;;;;;11.37;5.17;;;4.10;60.10;;;;;;4891006;29;20485;-78
2021/12/24 04:00:29;;;;;;;11.60;5.83;;;4.00;60.30;;;;;;4878570;29;20029;-77
2021/12/24 04:02:55;;;;;;;9.43;5.37;;;4.00;60.40;;;;;;4903445;29;20028;-78
2021/12/24 04:05:22;;;;;;;12.40;5.40;;;4.00;60.30;;;;;;4888490;29;20484;-78
2021/12/24 04:07:47;;;;;;;8.83;5.17;;;4.00;60.50;;;;;;4892075;29;20047;-78
2021/12/24 04:12:48;;;;;;;10.77;5.93;;;3.90;60.70;;;;;;4893471;29;20464;-78
2021/12/24 04:15:14;;;;;;;10.73;5.47;;;3.90;60.60;;;;;;4903276;29;20032;-78
2021/12/24 04:17:42;;;;;;;6.43;4.43;;;3.90;60.70;;;;;;4874801;29;20401;-78
2021/12/24 04:25:37;;;;;;;9.13;3.97;;;3.80;60.80;;;;;;4890272;29;20043;-78
2021/12/24 04:28:03;;;;;;;7.57;3.83;;;3.80;61.00;;;;;;4892094;29;20029;-78
2021/12/24 04:30:39;;;;;;;9.87;4.17;;;3.80;61.10;;;;;;4872337;29;20055;-78
2021/12/24 04:33:13;;;;;;;6.57;3.33;;;3.80;61.00;;;;;;4897163;29;20028;-78
2021/12/24 04:35:43;;;;;;;5.43;2.70;;;3.80;61.10;;;;;;4903567;29;20039;-78
2021/12/24 04:51:52;;;;;;;10.60;4.70;;;3.90;62.00;;;;;;4891906;29;20467;-78
2021/12/24 05:05:11;;;;;;;5.70;2.47;;;3.90;62.00;;;;;;4891392;29;20060;-78
2021/12/24 05:08:03;;;;;;;5.20;2.57;;;3.90;62.00;;;;;;4894157;29;20048;-78
2021/12/24 05:10:25;;;;;;;11.37;3.10;;;3.90;61.90;;;;;;4885523;29;20068;-78
2021/12/24 05:12:51;;;;;;;5.83;3.10;;;3.80;61.90;;;;;;4887860;29;20111;-78
2021/12/24 05:15:18;;;;;;;7.20;4.17;;;3.90;61.90;;;;;;4890494;29;20536;-78
2021/12/24 05:23:08;;;;;;;8.87;4.77;;;3.80;61.50;;;;;;4891964;29;20048;-78
2021/12/24 05:25:42;;;;;;;7.20;3.70;;;3.90;61.50;;;;;;4879129;29;20497;-78
2021/12/24 05:28:08;;;;;;;6.43;3.63;;;3.80;61.40;;;;;;4882344;29;20032;-78
2021/12/24 05:30:34;;;;;;;5.70;3.00;;;3.80;61.90;;;;;;4891961;29;20041;-78
2021/12/24 05:32:59;;;;;;;6.70;3.00;;;3.90;62.10;;;;;;4900178;29;20024;-78
2021/12/24 05:35:25;;;;;;;4.83;2.60;;;3.90;62.20;;;;;;4899235;29;20092;-78
2021/12/24 05:37:51;;;;;;;7.20;3.30;;;3.90;62.40;;;;;;4905758;29;20571;-78
2021/12/24 05:40:17;;;;;;;6.67;2.80;;;3.80;62.40;;;;;;4878327;29;20033;-78
2021/12/24 05:42:42;;;;;;;9.10;4.00;;;3.90;62.50;;;;;;4872486;29;20037;-78
2021/12/24 05:45:10;;;;;;;5.67;3.47;;;3.80;62.50;;;;;;4878814;29;20039;-79
2021/12/24 05:47:36;;;;;;;8.60;4.90;;;3.80;62.60;;;;;;4892128;29;20036;-78
2021/12/24 05:50:05;;;;;;;17.37;7.13;;;3.80;62.50;;;;;;4891963;29;20033;-78
2021/12/24 05:52:32;;;;;;;15.83;6.67;;;3.80;62.40;;;;;;4891387;29;20559;-78
2021/12/24 05:54:58;;;;;;;14.13;5.83;;;3.80;62.30;;;;;;4903645;29;20028;-78
2021/12/24 05:57:26;;;;;;;11.83;6.53;;;3.80;62.00;;;;;;4891929;29;20037;-78
2021/12/24 05:59:52;;;;;;;11.63;5.77;;;3.90;61.80;;;;;;4892091;29;20085;-78
2021/12/24 06:02:18;;;;;;;12.57;6.77;;;3.90;61.70;;;;;;4876373;29;20032;-78
2021/12/24 06:04:43;;;;;;;11.73;6.77;;;3.90;61.50;;;;;;4874569;29;20044;-78
2021/12/24 06:07:09;;;;;;;17.80;8.00;;;3.90;61.50;;;;;;4890710;29;20468;-78
2021/12/24 06:09:35;;;;;;;10.03;5.80;;;3.90;61.70;;;;;;4874968;29;20036;-78
2021/12/24 06:12:01;;;;;;;11.57;6.33;;;3.90;62.40;;;;;;4873781;29;20036;-79
2021/12/24 06:14:27;;;;;;;15.47;7.37;;;3.80;62.50;;;;;;4873653;29;20029;-78
2021/12/24 06:17:03;;;;;;;14.70;6.53;;;3.90;62.70;;;;;;4875811;29;20033;-78
2021/12/24 06:19:29;;;;;;;23.80;8.27;;;3.90;62.60;;;;;;4893639;29;20029;-78
2021/12/24 06:21:57;;;;;;;12.83;7.00;;;3.90;62.60;;;;;;4899364;29;20498;-78
2021/12/24 06:24:23;;;;;;;15.90;8.23;;;4.00;62.40;;;;;;4871792;29;20033;-78
2021/12/24 06:26:49;;;;;;;19.57;8.30;;;3.90;62.30;;;;;;4901820;29;20052;-78
2021/12/24 06:29:15;;;;;;;19.47;9.43;;;3.90;62.30;;;;;;4899465;29;20044;-78
2021/12/24 06:31:40;;;;;;;14.37;7.47;;;3.90;62.20;;;;;;4893696;29;20041;-78
2021/12/24 06:34:07;;;;;;;40.50;16.87;;;3.90;62.30;;;;;;4891623;29;20064;-78
2021/12/24 06:36:36;;;;;;;21.70;11.80;;;4.00;62.50;;;;;;4894100;29;20025;-78
2021/12/24 06:39:04;;;;;;;18.27;10.60;;;4.00;62.40;;;;;;4874002;29;20119;-79
2021/12/24 06:41:30;;;;;;;24.27;13.63;;;4.00;62.50;;;;;;4891598;29;20031;-78
2021/12/24 06:43:56;;;;;;;21.97;12.10;;;4.00;62.40;;;;;;4883771;29;20037;-78
2021/12/24 06:46:22;;;;;;;24.20;11.73;;;4.00;62.60;;;;;;4891045;29;20025;-78
2021/12/24 06:48:53;;;;;;;24.73;11.90;;;4.00;62.50;;;;;;4907320;29;20490;-79
2021/12/24 06:51:19;;;;;;;27.83;11.83;;;3.90;62.50;;;;;;4894872;29;20020;-78
2021/12/24 06:53:45;;;;;;;26.87;11.97;;;3.90;62.60;;;;;;4883261;29;20480;-78
2021/12/24 06:56:11;;;;;;;25.83;11.50;;;4.00;62.70;;;;;;4881540;29;20089;-78
2021/12/24 06:58:36;;;;;;;29.50;12.83;;;4.00;62.70;;;;;;4898357;29;20080;-79
2021/12/24 07:01:03;;;;;;;29.97;17.30;;;3.90;62.60;;;;;;4886346;29;20041;-78
2021/12/24 07:03:29;;;;;;;31.97;15.10;;;3.90;62.70;;;;;;4894653;29;20025;-78
2021/12/24 07:05:55;;;;;;;16.27;8.13;;;3.90;62.80;;;;;;4897086;29;20124;-78
2021/12/24 07:08:21;;;;;;;18.00;8.47;;;3.90;62.70;;;;;;4893331;29;20132;-78
2021/12/24 07:10:46;;;;;;;29.67;10.87;;;3.90;62.60;;;;;;4874645;29;20041;-78
2021/12/24 07:13:12;;;;;;;20.47;9.43;;;3.90;62.50;;;;;;4873143;29;20518;-79
2021/12/24 07:15:38;;;;;;;18.43;9.20;;;3.90;62.50;;;;;;4875305;29;20055;-78
2021/12/24 07:18:04;;;;;;;24.43;11.87;;;3.90;62.60;;;;;;4896430;29;20060;-78
2021/12/24 07:20:29;;;;;;;22.43;10.37;;;3.80;62.50;;;;;;4893744;29;20063;-79
2021/12/24 07:22:55;;;;;;;13.40;7.43;;;3.80;62.50;;;;;;4892726;29;20028;-78
2021/12/24 07:25:21;;;;;;;17.87;8.97;;;3.80;62.50;;;;;;4895401;29;20419;-78
2021/12/24 07:27:47;;;;;;;16.67;8.27;;;3.80;62.40;;;;;;4890386;29;20041;-79
2021/12/24 07:30:13;;;;;;;17.53;7.20;;;3.90;62.40;;;;;;4876719;29;20036;-78
2021/12/24 07:32:40;;;;;;;11.13;5.70;;;3.90;62.30;;;;;;4875587;29;20480;-79
2021/12/24 07:35:07;;;;;;;11.23;6.00;;;4.00;62.20;;;;;;4894848;29;20024;-78
2021/12/24 07:37:32;;;;;;;38.33;18.77;;;4.00;62.10;;;;;;4892095;29;20032;-78
2021/12/24 07:39:58;;;;;;;35.17;19.23;;;4.10;62.00;;;;;;4894608;29;20495;-79
2021/12/24 07:42:26;;;;;;;35.37;18.00;;;4.10;62.00;;;;;;4889156;29;20036;-78
2021/12/24 07:44:52;;;;;;;37.90;18.97;;;4.00;62.10;;;;;;4896038;29;20067;-79
2021/12/24 07:47:27;;;;;;;32.30;17.03;;;4.00;62.20;;;;;;4895998;29;20041;-79
2021/12/24 07:50:17;;;;;;;30.37;15.77;;;4.00;62.40;;;;;;4880101;29;22108;-79
2021/12/24 07:52:44;;;;;;;28.03;14.93;;;4.10;62.50;;;;;;4907705;29;20531;-78
2021/12/24 07:55:10;;;;;;;29.83;15.00;;;4.10;62.60;;;;;;4891959;29;20029;-79
2021/12/24 07:57:38;;;;;;;41.23;15.53;;;4.00;62.60;;;;;;4879958;29;20052;-78
2021/12/24 08:00:06;;;;;;;28.30;15.73;;;4.10;62.80;;;;;;4886605;29;20119;-78
2021/12/24 08:02:32;;;;;;;25.87;16.20;;;4.10;62.90;;;;;;4874829;29;20039;-78
2021/12/24 08:04:58;;;;;;;23.57;15.93;;;4.20;62.90;;;;;;4871930;29;20029;-78
2021/12/24 08:07:23;;;;;;;26.73;17.13;;;4.20;62.90;;;;;;4877096;29;20046;-78
2021/12/24 08:09:51;;;;;;;32.83;18.63;;;4.20;63.00;;;;;;4893517;29;20048;-78
2021/12/24 08:12:17;;;;;;;45.07;25.63;;;4.30;63.10;;;;;;4891973;29;20099;-78
2021/12/24 08:14:44;;;;;;;40.30;23.37;;;4.30;63.00;;;;;;4863599;29;20024;-78
2021/12/24 08:17:10;;;;;;;29.57;16.83;;;4.30;62.90;;;;;;4890235;29;20381;-78
2021/12/24 08:19:37;;;;;;;23.37;11.33;;;4.30;62.90;;;;;;4896391;29;20568;-78
2021/12/24 08:22:03;;;;;;;22.00;12.50;;;4.30;62.70;;;;;;4874912;29;20165;-78
2021/12/24 08:24:30;;;;;;;20.40;10.87;;;4.20;62.50;;;;;;4886440;29;20061;-78
2021/12/24 08:26:56;;;;;;;17.83;9.60;;;4.30;62.50;;;;;;4879749;29;20087;-78
2021/12/24 08:29:22;;;;;;;18.70;9.40;;;4.30;62.10;;;;;;4872624;29;20036;-79
2021/12/24 08:31:50;;;;;;;17.27;9.63;;;4.30;62.10;;;;;;4897139;29;20388;-78
2021/12/24 08:34:17;;;;;;;15.17;8.67;;;4.30;62.00;;;;;;4890150;29;20033;-79
2021/12/24 08:36:44;;;;;;;20.90;11.27;;;4.30;62.00;;;;;;4896250;29;20024;-78
2021/12/24 08:39:09;;;;;;;22.40;12.30;;;4.30;61.90;;;;;;4873162;29;20033;-78
2021/12/24 08:41:35;;;;;;;27.40;15.13;;;4.40;61.90;;;;;;4874995;29;20027;-78
2021/12/24 08:44:02;;;;;;;21.73;11.13;;;4.50;61.80;;;;;;4869572;29;20064;-79
2021/12/24 08:46:28;;;;;;;21.13;12.40;;;4.50;61.70;;;;;;4894738;29;20024;-78
2021/12/24 08:48:54;;;;;;;27.23;12.70;;;4.50;61.70;;;;;;4891705;29;20036;-79
2021/12/24 08:51:20;;;;;;;25.07;14.07;;;4.50;61.80;;;;;;4895866;29;20106;-78
2021/12/24 08:53:46;;;;;;;27.07;15.23;;;4.60;61.80;;;;;;4897868;29;20115;-79
2021/12/24 08:56:12;;;;;;;32.07;15.90;;;4.60;61.80;;;;;;4892494;29;20033;-79
2021/12/24 08:58:37;;;;;;;27.03;15.73;;;4.70;61.80;;;;;;4897318;29;20484;-78
2021/12/24 09:01:05;;;;;;;24.13;15.33;;;4.70;62.00;;;;;;4874000;29;20036;-78
2021/12/24 09:03:31;;;;;;;26.67;15.40;;;4.80;62.20;;;;;;4896733;29;20079;-78
2021/12/24 09:05:57;;;;;;;32.03;19.63;;;4.80;62.30;;;;;;4886642;29;20037;-78
2021/12/24 09:08:22;;;;;;;27.10;16.83;;;4.90;62.50;;;;;;4906068;29;20044;-79
2021/12/24 09:10:49;;;;;;;28.73;17.93;;;4.90;62.60;;;;;;4900896;29;20033;-78
2021/12/24 09:13:14;;;;;;;29.77;16.97;;;5.00;62.70;;;;;;4874272;29;20025;-79
2021/12/24 09:15:40;;;;;;;32.80;17.73;;;5.10;62.60;;;;;;4881427;29;20489;-79
2021/12/24 09:18:07;;;;;;;32.37;16.30;;;5.10;62.50;;;;;;4904051;29;20028;-79
2021/12/24 09:20:41;;;;;;;24.13;12.37;;;5.20;62.40;;;;;;4899934;29;20028;-79
2021/12/24 09:23:09;;;;;;;18.40;10.20;;;5.20;62.10;;;;;;4882212;29;20024;-78
2021/12/24 09:25:35;;;;;;;17.37;9.40;;;5.20;61.80;;;;;;4875908;29;20029;-79
2021/12/24 09:28:02;;;;;;;22.60;11.37;;;5.20;61.60;;;;;;4891528;29;20037;-79
2021/12/24 09:30:28;;;;;;;19.83;11.70;;;5.20;61.60;;;;;;4885007;29;20025;-79
2021/12/24 09:32:54;;;;;;;23.20;12.60;;;5.20;61.70;;;;;;4889169;29;20025;-78
2021/12/24 09:35:21;;;;;;;18.73;10.70;;;5.30;61.70;;;;;;4870611;29;20096;-78
2021/12/24 09:37:48;;;;;;;18.67;10.80;;;5.30;61.60;;;;;;4899108;29;20043;-76
2021/12/24 09:40:14;;;;;;;19.07;10.20;;;5.40;61.50;;;;;;4884825;29;21149;-79
2021/12/24 09:42:41;;;;;;;22.90;11.83;;;5.40;61.20;;;;;;4896662;29;20088;-77
2021/12/24 09:45:08;;;;;;;31.40;14.73;;;5.50;61.10;;;;;;4881437;29;20400;-77
2021/12/24 09:47:34;;;;;;;26.80;13.93;;;5.70;61.00;;;;;;4873933;29;20449;-76
2021/12/24 09:50:00;;;;;;;21.13;12.53;;;5.70;60.80;;;;;;4881981;29;20115;-77
2021/12/24 09:52:26;;;;;;;23.57;12.23;;;5.80;60.80;;;;;;4872061;29;20053;-79
2021/12/24 09:54:52;;;;;;;21.17;11.93;;;5.90;60.60;;;;;;4896832;29;20080;-77
2021/12/24 09:57:19;;;;;;;25.03;12.20;;;5.80;60.40;;;;;;4879223;29;20029;-79
2021/12/24 09:59:45;;;;;;;33.90;12.53;;;5.90;60.30;;;;;;4883725;29;20429;-76
2021/12/24 10:02:15;;;;;;;28.17;12.60;;;5.90;60.10;;;;;;4881617;29;20043;-76
2021/12/24 10:04:42;;;;;;;23.53;12.00;;;5.90;60.00;;;;;;4889053;29;20032;-77
2021/12/24 10:07:11;;;;;;;18.83;10.83;;;5.90;59.90;;;;;;4870850;29;20104;-77
2021/12/24 10:09:40;;;;;;;24.90;12.27;;;5.90;59.80;;;;;;4882621;29;20040;-77
2021/12/24 10:12:13;;;;;;;23.93;12.57;;;5.90;59.70;;;;;;4882256;29;20025;-77
2021/12/24 10:15:00;;;;;;;25.20;11.87;;;6.00;59.70;;;;;;4882494;29;20110;-77
2021/12/24 10:17:33;;;;;;;24.40;11.60;;;6.00;59.70;;;;;;4900008;29;20373;-77
2021/12/24 10:20:08;;;;;;;19.90;11.88;;;6.00;59.40;;;;;;4899265;29;20441;-77
2021/12/24 10:22:52;;;;;;;24.57;11.37;;;6.00;59.40;;;;;;4882964;29;20029;-77
2021/12/24 10:25:27;;;;;;;23.67;11.97;;;6.10;59.10;;;;;;4882857;29;20033;-77
2021/12/24 10:27:53;;;;;;;18.73;11.57;;;6.10;59.20;;;;;;4899091;29;20388;-77
2021/12/24 10:30:22;;;;;;;23.27;11.43;;;6.10;59.10;;;;;;4898774;29;20036;-77
2021/12/24 10:32:50;;;;;;;25.60;14.00;;;6.10;59.10;;;;;;4882445;29;20039;-77
2021/12/24 10:35:23;;;;;;;26.43;14.63;;;6.10;59.10;;;;;;4898089;29;20104;-77
2021/12/24 10:38:16;;;;;;;26.03;15.67;;;6.20;59.20;;;;;;4897913;29;20499;-77
2021/12/24 10:40:53;;;;;;;40.53;21.70;;;6.30;59.10;;;;;;4899038;29;20488;-77
2021/12/24 10:43:28;;;;;;;88.53;39.77;;;6.30;59.00;;;;;;4882503;29;20036;-77
2021/12/24 10:46:13;;;;;;;39.07;18.20;;;6.40;58.90;;;;;;4898832;29;20032;-77
2021/12/24 10:48:58;;;;;;;25.97;14.43;;;6.40;58.60;;;;;;4898146;29;20078;-77
2021/12/24 10:51:52;;;;;;;26.17;12.70;;;6.50;58.50;;;;;;4898165;29;20029;-77
2021/12/24 10:54:10;;;;;;;21.43;11.87;;;6.50;58.30;;;;;;4899062;29;20032;-77
2021/12/24 10:56:36;;;;;;;21.63;11.90;;;6.60;58.30;;;;;;4898502;29;20084;-77
2021/12/24 10:59:02;;;;;;;30.87;13.53;;;6.70;58.40;;;;;;4898705;29;20028;-77
2021/12/24 11:01:28;;;;;;;25.17;13.90;;;6.70;58.00;;;;;;4881876;29;20033;-77
2021/12/24 11:03:54;;;;;;;18.27;11.43;;;6.70;58.00;;;;;;4879247;29;20032;-77
2021/12/24 11:06:22;;;;;;;24.50;12.60;;;6.80;58.00;;;;;;4895437;29;20112;-77
2021/12/24 11:08:57;;;;;;;22.37;12.73;;;6.90;57.90;;;;;;4882005;29;20052;-77
2021/12/24 11:11:23;;;;;;;25.63;12.17;;;6.90;57.70;;;;;;4883061;29;20041;-77
2021/12/24 11:13:49;;;;;;;20.33;11.83;;;6.90;57.60;;;;;;4889211;29;20047;-77
2021/12/24 11:16:19;;;;;;;21.40;13.03;;;6.90;57.50;;;;;;4893083;29;20107;-78
2021/12/24 11:18:53;;;;;;;20.97;12.90;;;7.00;57.50;;;;;;4909184;29;20111;-77
2021/12/24 11:21:21;;;;;;;23.90;11.83;;;6.90;57.40;;;;;;4879462;29;20077;-78
2021/12/24 11:23:48;;;;;;;23.50;11.80;;;6.90;57.50;;;;;;4880085;29;20029;-77
2021/12/24 11:26:17;;;;;;;28.53;14.53;;;6.90;57.40;;;;;;4880838;29;20111;-77
2021/12/24 11:28:44;;;;;;;34.63;17.37;;;6.90;57.30;;;;;;4894271;29;20028;-77
2021/12/24 11:31:22;;;;;;;70.47;36.17;;;6.90;57.20;;;;;;4899978;29;20036;-77
2021/12/24 11:33:51;;;;;;;35.10;21.53;;;6.90;57.20;;;;;;4880472;29;20445;-77
2021/12/24 11:36:19;;;;;;;25.40;14.10;;;6.90;57.10;;;;;;4863471;29;20433;-77
2021/12/24 11:38:50;;;;;;;21.47;12.00;;;6.90;57.10;;;;;;4868145;29;20085;-77
2021/12/24 11:41:18;;;;;;;26.60;14.00;;;6.80;57.10;;;;;;4898284;29;20112;-77
2021/12/24 11:43:49;;;;;;;25.50;14.57;;;6.80;57.10;;;;;;4897998;29;20096;-77
2021/12/24 11:46:17;;;;;;;28.70;15.57;;;6.90;57.20;;;;;;4892132;29;20056;-78
2021/12/24 11:48:44;;;;;;;27.77;15.13;;;6.90;57.30;;;;;;4896562;29;20028;-78
2021/12/24 11:51:22;;;;;;;27.43;14.67;;;6.90;57.20;;;;;;4894156;29;20252;-78
2021/12/24 11:53:51;;;;;;;27.10;13.57;;;6.80;57.30;;;;;;4874853;29;20033;-78
2021/12/24 11:56:20;;;;;;;29.00;13.23;;;6.80;57.50;;;;;;4879675;29;20029;-78
2021/12/24 11:58:47;;;;;;;24.90;12.60;;;6.90;57.50;;;;;;4880610;29;20021;-78
2021/12/24 12:01:18;;;;;;;20.60;11.90;;;6.90;57.60;;;;;;4897738;29;20111;-78
2021/12/24 12:03:51;;;;;;;30.53;12.00;;;6.90;57.60;;;;;;4892726;29;20532;-78
2021/12/24 12:06:17;;;;;;;28.73;12.17;;;6.90;57.60;;;;;;4905093;29;20035;-77
2021/12/24 12:08:47;;;;;;;21.70;12.27;;;6.90;57.60;;;;;;4894946;29;20044;-77
2021/12/24 12:11:19;;;;;;;21.80;11.63;;;7.00;57.60;;;;;;4891103;29;20503;-78
2021/12/24 12:13:59;;;;;;;23.83;14.77;;;7.00;57.60;;;;;;4903808;29;20428;-78
2021/12/24 12:16:50;;;;;;;26.10;14.80;;;7.00;57.50;;;;;;4890259;29;20048;-78
2021/12/24 12:19:24;;;;;;;20.60;12.93;;;7.00;57.50;;;;;;4868310;29;20464;-78
2021/12/24 12:24:59;;;;;;;22.35;12.68;;;6.90;57.50;;;;;;4892327;29;20032;-77
2021/12/24 12:27:36;;;;;;;24.15;12.10;;;7.00;57.50;;;;;;4881097;29;20032;-77
2021/12/24 12:30:19;;;;;;;24.83;13.77;;;6.90;57.40;;;;;;4892718;29;20127;-78
2021/12/24 12:32:45;;;;;;;24.75;13.63;;;6.90;57.40;;;;;;4888348;29;20029;-78
2021/12/24 12:35:12;;;;;;;22.77;11.67;;;6.80;57.50;;;;;;4861918;29;20034;-78
2021/12/24 12:37:47;;;;;;;24.73;13.67;;;6.80;57.50;;;;;;4888375;29;20388;-78
2021/12/24 12:40:13;;;;;;;34.60;15.50;;;6.90;57.60;;;;;;4899726;29;20061;-77
2021/12/24 12:42:51;;;;;;;24.40;13.23;;;6.90;57.60;;;;;;4905200;29;20528;-77
2021/12/24 12:45:20;;;;;;;24.67;13.70;;;6.90;57.50;;;;;;4887301;29;20039;-77
2021/12/24 12:47:57;;;;;;;23.70;12.13;;;6.90;57.40;;;;;;4881160;29;20028;-77
2021/12/24 12:50:25;;;;;;;37.50;14.73;;;6.90;57.40;;;;;;4891987;29;20033;-77
2021/12/24 12:53:11;;;;;;;28.00;14.33;;;6.90;57.40;;;;;;4881811;29;20420;-77
2021/12/24 12:55:37;;;;;;;21.70;13.20;;;6.90;57.50;;;;;;4879825;29;20128;-78
2021/12/24 12:58:19;;;;;;;34.83;14.30;;;6.90;57.50;;;;;;4897192;29;20081;-77
2021/12/24 13:01:12;;;;;;;27.07;13.47;;;6.90;57.30;;;;;;4895762;29;20491;-77
2021/12/24 13:03:56;;;;;;;20.43;11.63;;;6.90;57.20;;;;;;4892516;29;20061;-78
2021/12/24 13:06:50;;;;;;;21.27;12.03;;;6.90;57.20;;;;;;4874815;29;20069;-77
2021/12/24 13:09:21;;;;;;;26.77;13.07;;;6.90;57.30;;;;;;4876097;29;20077;-78
2021/12/24 13:11:50;;;;;;;26.07;13.20;;;6.90;57.30;;;;;;4861788;29;20029;-77
2021/12/24 13:14:17;;;;;;;24.20;13.47;;;6.90;57.30;;;;;;4875847;29;20064;-78
2021/12/24 13:16:51;;;;;;;23.23;13.93;;;7.00;57.50;;;;;;4895421;29;20507;-77
2021/12/24 13:24:37;;;;;;;22.00;12.83;;;7.00;57.60;;;;;;4893750;29;20048;-78
2021/12/24 13:27:03;;;;;;;23.60;12.93;;;7.00;57.50;;;;;;4879806;29;20029;-77
2021/12/24 13:29:29;;;;;;;21.77;13.90;;;7.00;57.50;;;;;;4876302;29;20041;-78
2021/12/24 13:31:56;;;;;;;28.50;12.57;;;7.00;57.50;;;;;;4895172;29;20089;-78
2021/12/24 13:34:23;;;;;;;26.20;16.50;;;7.00;57.50;;;;;;4884201;29;20115;-79
2021/12/24 13:36:50;;;;;;;24.37;14.20;;;7.00;57.50;;;;;;4887044;29;20028;-79
2021/12/24 13:39:24;;;;;;;24.30;14.20;;;7.00;57.60;;;;;;4916196;29;20067;-78
2021/12/24 13:42:04;;;;;;;30.30;20.57;;;7.10;57.60;;;;;;4898670;29;20068;-78
2021/12/24 13:44:33;;;;;;;24.87;16.10;;;7.10;57.50;;;;;;4914795;29;20020;-78
2021/12/24 13:47:04;;;;;;;34.80;19.90;;;7.10;57.40;;;;;;4883962;29;20029;-78
2021/12/24 13:54:55;;;;;;;35.30;18.57;;;7.10;57.40;;;;;;4905659;29;20038;-78
2021/12/24 13:57:21;;;;;;;22.70;14.30;;;7.10;57.40;;;;;;4902953;29;20103;-78
2021/12/24 13:59:53;;;;;;;30.93;15.47;;;7.00;57.40;;;;;;4898253;29;20025;-78
2021/12/24 14:02:20;;;;;;;28.45;17.77;;;7.00;57.50;;;;;;4903077;29;20036;-79
2021/12/24 14:04:45;;;;;;;22.30;13.03;;;7.00;57.40;;;;;;4901075;29;20033;-78
2021/12/24 14:07:11;;;;;;;22.77;12.13;;;7.00;57.40;;;;;;4896135;29;20392;-78
2021/12/24 14:09:37;;;;;;;23.47;13.10;;;7.10;57.60;;;;;;4908821;29;20053;-78
2021/12/24 14:12:07;;;;;;;28.33;12.43;;;7.10;57.50;;;;;;4905546;29;20032;-78
2021/12/24 14:22:17;;;;;;;31.23;16.03;;;7.10;57.50;;;;;;4896581;29;20025;-78
2021/12/24 14:25:13;;;;;;;33.93;16.40;;;7.00;57.40;;;;;;4872906;29;20388;-78
2021/12/24 14:27:44;;;;;;;47.30;27.23;;;7.00;57.50;;;;;;4895881;29;20155;-79
2021/12/24 14:30:12;;;;;;;45.33;24.90;;;7.00;57.60;;;;;;4894957;29;20029;-78
2021/12/24 14:32:43;;;;;;;33.70;18.33;;;7.10;57.70;;;;;;4900375;29;20060;-78
2021/12/24 14:35:16;;;;;;;42.73;22.07;;;7.00;57.70;;;;;;4898734;29;20036;-78
2021/12/24 14:37:52;;;;;;;50.93;28.20;;;7.10;57.70;;;;;;4896117;29;20032;-78
2021/12/24 14:40:18;;;;;;;30.27;16.13;;;7.10;57.80;;;;;;4894573;29;20081;-78
2021/12/24 14:42:54;;;;;;;26.60;15.17;;;7.10;57.70;;;;;;4898963;29;20458;-78
2021/12/24 14:45:45;;;;;;;25.90;16.97;;;7.10;57.80;;;;;;4890490;29;20115;-78
2021/12/24 14:48:16;;;;;;;29.37;17.20;;;7.00;57.90;;;;;;4897768;29;20040;-78
2021/12/24 14:50:48;;;;;;;34.93;16.07;;;7.00;58.00;;;;;;4889272;29;20035;-79
2021/12/24 14:53:14;;;;;;;24.90;16.27;;;7.00;58.10;;;;;;4892750;29;20839;-78